CheckWX is a tool to help pilots better visualize weather data.  It is not intended as a substitute for an official pre-flight weather briefing.

10:56:36 UTC

1U7 METAR
Bear Lake County Airport
Paris, Idaho, USA
Current

22 mins ago

K1U7 221035Z AUTO 00000KT 5SM BR OVC004 01/01 A2965 RMK A01
Observed
May-22 @ 10:35 UTC
Visibility
5 SM
Flight Rules
LIFR
Conditions
Mist
Cloud Levels
  • Overcast at 400' AGL
Temperature
C / 34°F
Dewpoint
C / 34°F
Humidity
100%
Altimeter
29.65" Hg
Pressure
1004.02 hPa
Previous

42 mins ago

K1U7 221015Z AUTO 12003KT 6SM BR OVC004 01/01 A2964 RMK A01
Observed
May-22 @ 10:15 UTC
Wind
  • 120° at 3 KTS
Visibility
6 SM
Flight Rules
LIFR
Conditions
Mist
Cloud Levels
  • Overcast at 400' AGL
Temperature
C / 34°F
Dewpoint
C / 34°F
Humidity
100%
Altimeter
29.64" Hg
Pressure
1003.72 hPa
Previous

1 hour ago

K1U7 220955Z AUTO 00000KT 6SM BR BKN004 OVC007 01/01 A2964 RMK A01 P0004
Observed
May-22 @ 09:55 UTC
Visibility
6 SM
Flight Rules
LIFR
Conditions
Mist
Cloud Levels
  • Broken at 400' AGL
  • Overcast at 700' AGL
Temperature
C / 34°F
Dewpoint
C / 34°F
Humidity
100%
Altimeter
29.64" Hg
Pressure
1003.72 hPa
Current Rain
0.04"